createdAt,value
2023-08-19T00:02:37.623Z,0.15
2023-08-19T00:07:35.643Z,0.10
2023-08-19T00:12:33.687Z,0.10
2023-08-19T00:17:32.001Z,0.10
2023-08-19T00:22:31.592Z,0.10
2023-08-19T00:27:29.887Z,0.20
2023-08-19T00:32:28.340Z,0.10
2023-08-19T00:37:26.333Z,0.20
2023-08-19T00:42:25.633Z,0.10
2023-08-19T00:47:24.130Z,0.10
2023-08-19T00:52:22.114Z,0.10
2023-08-19T00:57:20.046Z,0.10
2023-08-19T01:02:19.446Z,0.10
2023-08-19T01:07:23.243Z,0.10
2023-08-19T01:12:26.198Z,0.10
2023-08-19T01:17:26.959Z,0.10
2023-08-19T01:22:29.723Z,0.10
2023-08-19T01:27:29.048Z,0.10
2023-08-19T01:32:27.446Z,0.10
2023-08-19T01:37:29.475Z,0.20
2023-08-19T01:42:27.847Z,0.10
2023-08-19T01:47:27.179Z,0.10
2023-08-19T01:52:25.094Z,0.10
2023-08-19T01:57:26.615Z,0.10
2023-08-19T02:02:25.416Z,0.10
2023-08-19T02:07:25.087Z,0.10
2023-08-19T02:12:23.078Z,0.10
2023-08-19T02:17:20.937Z,0.10
2023-08-19T02:22:22.046Z,0.20
2023-08-19T02:27:21.588Z,0.15
2023-08-19T02:32:19.636Z,0.20
2023-08-19T02:37:17.645Z,0.25
2023-08-19T02:42:17.731Z,0.10
2023-08-19T02:47:17.091Z,0.10
2023-08-19T02:52:15.027Z,0.20
2023-08-19T02:57:12.994Z,0.10
2023-08-19T03:02:11.073Z,0.20
2023-08-19T03:07:10.474Z,0.10
2023-08-19T03:12:09.033Z,0.10
2023-08-19T03:17:06.911Z,0.10
2023-08-19T03:22:04.882Z,0.10
2023-08-19T03:27:04.407Z,0.10
2023-08-19T03:32:03.148Z,0.15
2023-08-19T03:37:01.166Z,0.20
2023-08-19T03:41:59.254Z,0.10
2023-08-19T03:46:58.481Z,0.17
2023-08-19T03:51:56.457Z,0.20
2023-08-19T03:56:54.461Z,0.10
2023-08-19T04:01:52.392Z,0.17
2023-08-19T04:06:51.736Z,0.10
2023-08-19T04:11:52.809Z,0.20
2023-08-19T04:16:50.919Z,0.10
2023-08-19T04:21:48.813Z,0.10
2023-08-19T04:26:48.092Z,0.10
2023-08-19T04:31:46.358Z,0.10
2023-08-19T04:36:44.431Z,0.20
2023-08-19T04:41:43.601Z,0.20
2023-08-19T04:46:45.606Z,0.10
2023-08-19T04:51:44.235Z,0.10
2023-08-19T04:56:42.403Z,0.20
2023-08-19T05:01:40.928Z,0.20
2023-08-19T05:06:40.547Z,0.20
2023-08-19T05:11:39.289Z,0.10
2023-08-19T05:16:39.540Z,0.10
2023-08-19T05:21:37.429Z,0.10
2023-08-19T05:26:36.867Z,0.20
2023-08-19T05:31:34.924Z,0.20
2023-08-19T05:36:32.820Z,0.20
2023-08-19T05:41:30.675Z,0.10
2023-08-19T05:46:30.217Z,0.20
2023-08-19T05:51:28.116Z,0.20
2023-08-19T05:56:26.071Z,0.10
2023-08-19T06:01:25.076Z,0.20
2023-08-19T06:06:24.509Z,0.20
2023-08-19T06:11:22.414Z,0.20
2023-08-19T06:16:20.522Z,0.20
2023-08-19T06:21:19.178Z,0.10
2023-08-19T06:26:18.398Z,0.15
2023-08-19T06:31:17.893Z,0.20
2023-08-19T06:36:18.703Z,0.20
2023-08-19T06:41:18.114Z,0.20
2023-08-19T06:46:17.665Z,0.20
2023-08-19T06:51:15.859Z,0.10
2023-08-19T06:56:16.175Z,0.20
2023-08-19T07:01:14.954Z,0.20
2023-08-19T07:06:15.400Z,0.15
2023-08-19T07:11:13.515Z,0.20
2023-08-19T07:16:13.037Z,0.20
2023-08-19T07:21:13.170Z,0.20
2023-08-19T07:26:12.632Z,0.20
2023-08-19T07:31:11.746Z,0.20
2023-08-19T07:36:09.853Z,0.20
2023-08-19T07:41:07.741Z,0.20
2023-08-19T07:46:07.011Z,0.20
2023-08-19T07:51:04.977Z,0.20
2023-08-19T07:56:02.849Z,0.20
2023-08-19T08:01:00.816Z,0.20
2023-08-19T08:06:00.224Z,0.20
2023-08-19T08:10:58.144Z,0.20
2023-08-19T08:15:56.245Z,0.20
2023-08-19T08:20:54.113Z,0.20
2023-08-19T08:25:53.445Z,0.20
2023-08-19T08:30:51.360Z,0.20
2023-08-19T08:35:49.350Z,0.20
2023-08-19T08:40:47.473Z,0.20
2023-08-19T08:45:46.948Z,0.20
2023-08-19T08:50:45.629Z,0.20
2023-08-19T08:55:43.662Z,0.20
2023-08-19T09:00:42.187Z,0.20
2023-08-19T09:05:42.851Z,0.20
2023-08-19T09:10:41.023Z,0.20
2023-08-19T09:15:39.100Z,0.20
2023-08-19T09:20:37.335Z,0.20
2023-08-19T09:25:37.414Z,0.20
2023-08-19T09:30:35.604Z,0.22
2023-08-19T09:35:45.628Z,0.20
2023-08-19T09:41:08.054Z,0.20
2023-08-19T09:46:06.089Z,0.20
2023-08-19T09:51:04.169Z,0.20
2023-08-19T09:56:01.997Z,0.20
2023-08-19T10:01:01.424Z,0.20
2023-08-19T10:05:59.458Z,0.20
2023-08-19T10:10:57.767Z,0.20
2023-08-19T10:15:57.666Z,0.28
2023-08-19T10:20:58.379Z,0.30
2023-08-19T10:25:56.448Z,0.30
2023-08-19T10:31:07.639Z,0.30
2023-08-19T10:36:08.320Z,0.22
2023-08-19T10:41:06.248Z,0.25
2023-08-19T10:46:04.357Z,0.22
2023-08-19T10:51:02.262Z,0.20
2023-08-19T10:56:01.566Z,0.20
2023-08-19T11:00:59.680Z,0.25
2023-08-19T11:05:57.606Z,0.20
2023-08-19T11:10:55.447Z,0.20
2023-08-19T11:16:04.901Z,0.30
2023-08-19T11:21:02.876Z,0.30
2023-08-19T11:26:01.042Z,0.30
2023-08-19T11:30:59.004Z,0.30
2023-08-19T11:35:58.274Z,0.30
2023-08-19T11:40:56.171Z,0.30
2023-08-19T11:45:54.812Z,0.30
2023-08-19T11:50:52.824Z,0.30
2023-08-19T11:55:53.992Z,0.20
2023-08-19T12:00:54.882Z,0.30
2023-08-19T12:05:53.244Z,0.30
2023-08-19T12:10:54.366Z,0.30
2023-08-19T12:15:52.330Z,0.30
2023-08-19T12:20:50.939Z,0.30
2023-08-19T12:25:53.964Z,0.30
2023-08-19T12:30:52.021Z,0.30
2023-08-19T12:35:54.995Z,0.30
2023-08-19T12:40:58.741Z,0.30
2023-08-19T12:45:56.667Z,0.30
2023-08-19T12:50:54.630Z,0.30
2023-08-19T12:55:52.598Z,0.30
2023-08-19T13:00:51.927Z,0.30
2023-08-19T13:05:49.882Z,0.30
2023-08-19T13:10:47.772Z,0.30
2023-08-19T13:15:45.738Z,0.30
2023-08-19T13:20:45.057Z,0.30
2023-08-19T13:25:42.998Z,0.30
2023-08-19T13:30:40.946Z,0.30
2023-08-19T13:35:40.623Z,0.30
2023-08-19T13:40:39.900Z,0.30
2023-08-19T13:45:37.830Z,0.30
2023-08-19T13:50:35.810Z,0.30
2023-08-19T13:55:34.832Z,0.30
2023-08-19T14:00:36.078Z,0.30
2023-08-19T14:05:33.985Z,0.30
2023-08-19T14:10:31.971Z,0.30
2023-08-19T14:15:29.892Z,0.30
2023-08-19T14:20:29.466Z,0.30
2023-08-19T14:25:28.384Z,0.30
2023-08-19T14:30:26.464Z,0.30
2023-08-19T14:35:24.452Z,0.30
2023-08-19T14:40:25.156Z,0.25
2023-08-19T14:45:23.299Z,0.30
2023-08-19T14:50:21.539Z,0.30
2023-08-19T14:55:19.468Z,0.30
2023-08-19T15:00:19.006Z,0.20
2023-08-19T15:05:17.506Z,0.30
2023-08-19T15:10:15.476Z,0.25
2023-08-19T15:15:18.727Z,0.30
2023-08-19T15:20:18.443Z,0.30
2023-08-19T15:25:16.632Z,0.30
2023-08-19T15:30:15.406Z,0.20
2023-08-19T15:35:13.531Z,0.20
2023-08-19T15:40:13.463Z,0.20
2023-08-19T15:45:11.894Z,0.20
2023-08-19T15:50:12.345Z,0.20
2023-08-19T15:55:11.042Z,0.20
2023-08-19T16:00:12.893Z,0.20
2023-08-19T16:05:11.185Z,0.20
2023-08-19T16:10:09.732Z,0.20
2023-08-19T16:15:13.074Z,0.20
2023-08-19T16:20:11.571Z,0.20
2023-08-19T16:25:10.378Z,0.20
2023-08-19T16:30:09.071Z,0.20
2023-08-19T16:35:09.085Z,0.20
2023-08-19T16:40:07.646Z,0.20
2023-08-19T16:45:06.002Z,0.20
2023-08-19T16:50:04.281Z,0.20
2023-08-19T16:55:03.811Z,0.20
2023-08-19T17:00:01.920Z,0.20
2023-08-19T17:05:00.105Z,0.20
2023-08-19T17:09:58.244Z,0.20
2023-08-19T17:14:57.516Z,0.20
2023-08-19T17:19:55.409Z,0.20
2023-08-19T17:24:53.602Z,0.20
2023-08-19T17:29:51.653Z,0.20
2023-08-19T17:34:50.929Z,0.20
2023-08-19T17:39:50.493Z,0.20
2023-08-19T17:44:55.672Z,0.20
2023-08-19T17:49:55.116Z,0.20
2023-08-19T17:54:53.100Z,0.20
2023-08-19T17:59:51.009Z,0.20
2023-08-19T18:04:48.959Z,0.20
2023-08-19T18:09:48.316Z,0.20
2023-08-19T18:14:46.433Z,0.20
2023-08-19T18:19:44.606Z,0.20
2023-08-19T18:24:42.512Z,0.20
2023-08-19T18:29:43.263Z,0.20
2023-08-19T18:34:42.102Z,0.20
2023-08-19T18:39:40.143Z,0.20
2023-08-19T18:44:38.056Z,0.20
2023-08-19T18:49:37.327Z,0.20
2023-08-19T18:54:35.465Z,0.20
2023-08-19T18:59:33.323Z,0.20
2023-08-19T19:04:31.327Z,0.20
2023-08-19T19:09:35.364Z,0.20
2023-08-19T19:14:33.317Z,0.20
2023-08-19T19:19:31.272Z,0.20
2023-08-19T19:24:30.612Z,0.20
2023-08-19T19:29:28.544Z,0.20
2023-08-19T19:34:26.429Z,0.10
2023-08-19T19:39:24.400Z,0.20
2023-08-19T19:44:23.695Z,0.20
2023-08-19T19:49:21.834Z,0.20
2023-08-19T19:54:19.830Z,0.10
2023-08-19T19:59:17.728Z,0.20
2023-08-19T20:04:17.108Z,0.20
2023-08-19T20:09:14.998Z,0.20
2023-08-19T20:14:13.385Z,0.20
2023-08-19T20:19:13.357Z,0.10
2023-08-19T20:24:13.282Z,0.20
2023-08-19T20:29:11.263Z,0.20
2023-08-19T20:34:09.150Z,0.20
2023-08-19T20:39:07.777Z,0.20
2023-08-19T20:44:10.519Z,0.20
2023-08-19T20:49:08.866Z,0.20
2023-08-19T20:54:07.666Z,0.20
2023-08-19T20:59:06.113Z,0.20
2023-08-19T21:04:05.654Z,0.20
2023-08-19T21:09:03.545Z,0.10
2023-08-19T21:14:01.412Z,0.20
2023-08-19T21:18:59.289Z,0.20
2023-08-19T21:23:58.523Z,0.20
2023-08-19T21:28:56.399Z,0.10
2023-08-19T21:33:54.326Z,0.20
2023-08-19T21:38:52.273Z,0.20
2023-08-19T21:43:51.653Z,0.20
2023-08-19T21:48:51.113Z,0.20
2023-08-19T21:53:49.950Z,0.10
2023-08-19T21:58:47.877Z,0.10
2023-08-19T22:03:47.229Z,0.10
2023-08-19T22:08:45.202Z,0.20
2023-08-19T22:13:43.081Z,0.20
2023-08-19T22:18:41.215Z,0.20
2023-08-19T22:23:40.480Z,0.20
2023-08-19T22:28:38.883Z,0.10
2023-08-19T22:33:37.324Z,0.10
2023-08-19T22:38:35.505Z,0.10
2023-08-19T22:43:49.258Z,0.20
2023-08-19T22:48:47.838Z,0.20
2023-08-19T22:53:46.414Z,0.20
2023-08-19T22:58:47.238Z,0.20
2023-08-19T23:03:48.198Z,0.10
2023-08-19T23:08:46.308Z,0.10
2023-08-19T23:13:48.104Z,0.20
2023-08-19T23:18:46.268Z,0.10
2023-08-19T23:23:44.486Z,0.20
2023-08-19T23:28:42.398Z,0.20
2023-08-19T23:33:41.746Z,0.20
2023-08-19T23:38:39.959Z,0.13
2023-08-19T23:43:37.934Z,0.20
2023-08-19T23:48:36.146Z,0.10
2023-08-19T23:53:39.099Z,0.10
2023-08-19T23:58:37.585Z,0.10
